createdAt,value
2016-09-28T00:00:07.815Z,966.68
2016-09-28T00:01:07.333Z,966.68
2016-09-28T00:02:07.906Z,966.68
2016-09-28T00:03:07.445Z,966.66
2016-09-28T00:04:07.935Z,966.72
2016-09-28T00:05:07.435Z,966.73
2016-09-28T00:06:08.017Z,966.67
2016-09-28T00:07:07.654Z,966.70
2016-09-28T00:08:08.242Z,966.66
2016-09-28T00:09:07.768Z,966.70
2016-09-28T00:10:07.356Z,966.69
2016-09-28T00:11:07.874Z,966.66
2016-09-28T00:12:07.425Z,966.68
2016-09-28T00:13:08.036Z,966.70
2016-09-28T00:14:07.534Z,966.73
2016-09-28T00:15:07.975Z,966.73
2016-09-28T00:16:07.376Z,966.75
2016-09-28T00:17:08.156Z,966.76
2016-09-28T00:18:07.621Z,966.74
2016-09-28T00:19:08.208Z,966.72
2016-09-28T00:20:07.740Z,966.78
2016-09-28T00:21:08.312Z,966.80
2016-09-28T00:22:07.917Z,966.75
2016-09-28T00:23:07.487Z,966.78
2016-09-28T00:24:08.061Z,966.77
2016-09-28T00:25:07.536Z,966.75
2016-09-28T00:26:08.117Z,966.76
2016-09-28T00:27:07.911Z,966.79
2016-09-28T00:28:07.466Z,966.75
2016-09-28T00:29:08.023Z,966.75
2016-09-28T00:30:07.595Z,966.76
2016-09-28T00:31:08.178Z,966.71
2016-09-28T00:32:07.775Z,966.82
2016-09-28T00:33:07.264Z,966.76
2016-09-28T00:34:07.736Z,966.77
2016-09-28T00:35:07.234Z,966.78
2016-09-28T00:36:07.784Z,966.74
2016-09-28T00:37:07.349Z,966.75
2016-09-28T00:38:07.934Z,966.78
2016-09-28T00:39:07.411Z,966.80
2016-09-28T00:40:08.045Z,966.75
2016-09-28T00:41:07.646Z,966.75
2016-09-28T00:42:08.298Z,966.76
2016-09-28T00:43:07.830Z,966.77
2016-09-28T00:44:07.285Z,966.78
2016-09-28T00:45:07.854Z,966.79
2016-09-28T00:46:07.509Z,966.78
2016-09-28T00:47:08.171Z,966.76
2016-09-28T00:48:07.714Z,966.76
2016-09-28T00:49:08.272Z,966.74
2016-09-28T00:50:07.923Z,966.74
2016-09-28T00:51:07.414Z,966.79
2016-09-28T00:52:08.034Z,966.80
2016-09-28T00:53:07.540Z,966.76
2016-09-28T00:54:08.148Z,966.77
2016-09-28T00:55:07.585Z,966.80
2016-09-28T00:56:08.152Z,966.77
2016-09-28T00:57:07.691Z,966.77
2016-09-28T00:58:08.255Z,966.80
2016-09-28T00:59:07.824Z,966.80
2016-09-28T01:00:07.277Z,966.80
2016-09-28T01:01:07.815Z,966.82
2016-09-28T01:02:07.349Z,966.82
2016-09-28T01:03:07.833Z,966.81
2016-09-28T01:04:07.354Z,966.84
2016-09-28T01:05:07.865Z,966.78
2016-09-28T01:06:07.403Z,966.80
2016-09-28T01:07:08.494Z,966.80
2016-09-28T01:08:07.950Z,966.81
2016-09-28T01:09:07.466Z,966.79
2016-09-28T01:10:07.757Z,966.81
2016-09-28T01:11:08.244Z,966.80
2016-09-28T01:12:07.744Z,966.76
2016-09-28T01:13:08.309Z,966.79
2016-09-28T01:14:07.864Z,966.77
2016-09-28T01:15:07.412Z,966.78
2016-09-28T01:16:07.695Z,966.77
2016-09-28T01:17:07.553Z,966.78
2016-09-28T01:18:08.133Z,966.80
2016-09-28T01:19:07.667Z,966.81
2016-09-28T01:20:08.188Z,966.80
2016-09-28T01:21:07.877Z,966.78
2016-09-28T01:22:07.446Z,966.78
2016-09-28T01:23:08.166Z,966.80
2016-09-28T01:24:07.672Z,966.82
2016-09-28T01:25:08.094Z,966.75
2016-09-28T01:26:07.634Z,966.76
2016-09-28T01:27:08.243Z,966.78
2016-09-28T01:28:08.131Z,966.79
2016-09-28T01:29:08.348Z,966.75
2016-09-28T01:30:07.920Z,966.76
2016-09-28T01:31:07.463Z,966.78
2016-09-28T01:32:08.098Z,966.79
2016-09-28T01:33:07.853Z,966.77
2016-09-28T01:34:07.389Z,966.81
2016-09-28T01:35:07.303Z,966.80
2016-09-28T01:36:07.829Z,966.80
2016-09-28T01:37:07.346Z,966.79
2016-09-28T01:38:07.930Z,966.85
2016-09-28T01:39:07.214Z,966.88
2016-09-28T01:40:07.523Z,966.86
2016-09-28T01:41:07.983Z,966.81
2016-09-28T01:42:07.487Z,966.80
2016-09-28T01:43:08.057Z,966.82
2016-09-28T01:44:07.675Z,966.82
2016-09-28T01:45:07.588Z,966.87
2016-09-28T01:46:08.161Z,966.83
2016-09-28T01:47:08.048Z,966.82
2016-09-28T01:48:07.631Z,966.82
2016-09-28T01:49:07.769Z,966.81
2016-09-28T01:50:07.321Z,966.82
2016-09-28T01:51:07.917Z,966.79
2016-09-28T01:52:08.166Z,966.82
2016-09-28T01:53:07.635Z,966.87
2016-09-28T01:54:07.938Z,966.79
2016-09-28T01:55:08.118Z,966.79
2016-09-28T01:56:07.810Z,966.76
2016-09-28T01:57:07.511Z,966.80
2016-09-28T01:58:08.037Z,966.77
2016-09-28T01:59:07.593Z,966.74
2016-09-28T02:00:08.018Z,966.76
2016-09-28T02:01:08.154Z,966.75
2016-09-28T02:02:07.735Z,966.81
2016-09-28T02:03:08.259Z,966.78
2016-09-28T02:04:07.827Z,966.83
2016-09-28T02:05:07.287Z,966.84
2016-09-28T02:06:07.745Z,966.86
2016-09-28T02:07:07.545Z,966.84
2016-09-28T02:08:08.042Z,966.86
2016-09-28T02:09:07.598Z,966.86
2016-09-28T02:10:08.221Z,966.86
2016-09-28T02:11:07.670Z,966.82
2016-09-28T02:12:08.131Z,966.86
2016-09-28T02:13:07.821Z,966.87
2016-09-28T02:14:07.293Z,966.86
2016-09-28T02:15:07.795Z,966.86
2016-09-28T02:16:07.331Z,966.86
2016-09-28T02:17:08.009Z,966.86
2016-09-28T02:18:07.526Z,966.86
2016-09-28T02:19:08.030Z,966.83
2016-09-28T02:20:07.531Z,966.83
2016-09-28T02:21:08.348Z,966.82
2016-09-28T02:22:07.900Z,966.85
2016-09-28T02:23:07.450Z,966.87
2016-09-28T02:24:08.031Z,966.84
2016-09-28T02:25:07.515Z,966.89
2016-09-28T02:26:08.061Z,966.91
2016-09-28T02:27:07.580Z,966.90
2016-09-28T02:28:08.189Z,966.88
2016-09-28T02:29:07.721Z,966.82
2016-09-28T02:30:08.263Z,966.85
2016-09-28T02:31:07.645Z,966.82
2016-09-28T02:32:07.656Z,966.88
2016-09-28T02:33:08.277Z,966.83
2016-09-28T02:34:07.777Z,966.83
2016-09-28T02:35:07.295Z,966.83
2016-09-28T02:36:07.916Z,966.82
2016-09-28T02:37:07.439Z,966.83
2016-09-28T02:38:08.101Z,966.79
2016-09-28T02:39:08.101Z,966.81
2016-09-28T02:40:07.912Z,966.78
2016-09-28T02:41:07.549Z,966.81
2016-09-28T02:42:08.081Z,966.79
2016-09-28T02:43:07.517Z,966.75
2016-09-28T02:44:08.029Z,966.79
2016-09-28T02:45:07.478Z,966.83
2016-09-28T02:46:07.962Z,966.83
2016-09-28T02:47:07.451Z,966.88
2016-09-28T02:48:07.932Z,966.86
2016-09-28T02:49:07.441Z,966.87
2016-09-28T02:50:13.494Z,966.84
2016-09-28T02:51:08.009Z,966.92
2016-09-28T02:52:07.525Z,966.93
2016-09-28T02:53:08.067Z,966.94
2016-09-28T02:54:07.580Z,966.97
2016-09-28T02:55:08.154Z,966.95
2016-09-28T02:56:07.697Z,966.96
2016-09-28T02:57:08.312Z,966.99
2016-09-28T02:58:07.796Z,966.97
2016-09-28T02:59:07.382Z,966.96
2016-09-28T03:00:07.947Z,966.97
2016-09-28T03:01:07.536Z,966.94
2016-09-28T03:02:08.179Z,966.92
2016-09-28T03:03:07.630Z,966.94
2016-09-28T03:04:08.181Z,966.94
2016-09-28T03:05:07.678Z,966.93
2016-09-28T03:06:08.232Z,966.88
2016-09-28T03:07:07.722Z,966.94
2016-09-28T03:08:08.298Z,966.93
2016-09-28T03:09:07.813Z,966.94
2016-09-28T03:10:07.272Z,966.92
2016-09-28T03:11:07.795Z,966.93
2016-09-28T03:12:07.270Z,966.91
2016-09-28T03:13:07.742Z,967.00
2016-09-28T03:14:08.323Z,966.93
2016-09-28T03:15:08.431Z,966.87
2016-09-28T03:16:07.920Z,966.92
2016-09-28T03:17:07.580Z,966.92
2016-09-28T03:18:07.462Z,966.92
2016-09-28T03:19:07.978Z,966.91
2016-09-28T03:20:07.578Z,966.95
2016-09-28T03:21:08.078Z,966.94
2016-09-28T03:22:07.790Z,966.97
2016-09-28T03:23:07.370Z,966.96
2016-09-28T03:24:07.873Z,966.98
2016-09-28T03:25:07.417Z,966.94
2016-09-28T03:27:07.684Z,966.99
2016-09-28T03:28:08.332Z,967.00
2016-09-28T03:29:07.815Z,966.96
2016-09-28T03:30:07.282Z,966.95
2016-09-28T03:31:07.867Z,966.98
2016-09-28T03:32:07.491Z,967.01
2016-09-28T03:33:08.053Z,967.04
2016-09-28T03:34:08.164Z,967.06
2016-09-28T03:35:07.649Z,967.05
2016-09-28T03:36:08.208Z,967.07
2016-09-28T03:37:07.811Z,967.06
2016-09-28T03:38:07.420Z,967.06
2016-09-28T03:39:08.058Z,967.00
2016-09-28T03:40:07.583Z,967.02
2016-09-28T03:41:08.093Z,966.97
2016-09-28T03:42:07.600Z,966.93
2016-09-28T03:43:08.130Z,966.93
2016-09-28T03:44:07.715Z,966.95
2016-09-28T03:45:08.235Z,966.93
2016-09-28T03:46:07.708Z,966.92
2016-09-28T03:47:13.788Z,966.89
2016-09-28T03:48:07.284Z,966.92
2016-09-28T03:49:07.773Z,966.84
2016-09-28T03:50:07.305Z,966.87
2016-09-28T03:51:07.807Z,966.87
2016-09-28T03:52:07.353Z,966.81
2016-09-28T03:53:07.771Z,966.82
2016-09-28T03:54:07.401Z,966.84
2016-09-28T03:55:07.921Z,966.85
2016-09-28T03:56:07.461Z,966.91
2016-09-28T03:57:08.039Z,966.93
2016-09-28T03:58:07.663Z,966.96
2016-09-28T03:59:08.244Z,966.96
2016-09-28T04:00:07.797Z,967.01
2016-09-28T04:01:07.398Z,967.05
2016-09-28T04:02:07.934Z,967.08
2016-09-28T04:03:07.472Z,967.06
2016-09-28T04:04:08.032Z,967.08
2016-09-28T04:05:07.621Z,967.09
2016-09-28T04:06:08.174Z,967.12
2016-09-28T04:07:07.660Z,967.13
2016-09-28T04:08:08.153Z,967.13
2016-09-28T04:09:07.659Z,967.11
2016-09-28T04:10:08.231Z,967.09
2016-09-28T04:11:07.833Z,967.13
2016-09-28T04:12:07.322Z,967.13
2016-09-28T04:13:07.825Z,967.13
2016-09-28T04:14:07.306Z,967.12
2016-09-28T04:15:07.887Z,967.12
2016-09-28T04:16:07.485Z,967.10
2016-09-28T04:17:07.978Z,967.10
2016-09-28T04:18:07.831Z,967.10
2016-09-28T04:19:07.318Z,967.10
2016-09-28T04:20:07.931Z,967.12
2016-09-28T04:21:07.431Z,967.09
2016-09-28T04:22:07.999Z,967.03
2016-09-28T04:23:07.520Z,967.09
2016-09-28T04:24:08.153Z,967.08
2016-09-28T04:25:10.606Z,967.08
2016-09-28T04:26:08.155Z,967.10
2016-09-28T04:27:07.676Z,967.10
2016-09-28T04:28:08.244Z,967.09
2016-09-28T04:29:07.678Z,967.10
2016-09-28T04:30:08.198Z,967.11
2016-09-28T04:31:07.735Z,967.10
2016-09-28T04:32:08.334Z,967.08
2016-09-28T04:33:07.741Z,967.10
2016-09-28T04:34:08.011Z,967.06
2016-09-28T04:35:07.531Z,967.09
2016-09-28T04:36:08.046Z,967.06
2016-09-28T04:37:07.519Z,967.08
2016-09-28T04:38:08.163Z,967.04
2016-09-28T04:39:07.671Z,967.12
2016-09-28T04:40:08.212Z,967.06
2016-09-28T04:41:08.074Z,967.06
2016-09-28T04:42:07.583Z,967.12
2016-09-28T04:43:08.174Z,967.13
2016-09-28T04:44:07.742Z,967.13
2016-09-28T04:45:08.244Z,967.12
2016-09-28T04:46:07.736Z,967.13
2016-09-28T04:47:08.339Z,967.11
2016-09-28T04:48:07.873Z,967.14
2016-09-28T04:49:07.432Z,967.08
2016-09-28T04:50:07.968Z,967.08
2016-09-28T04:51:07.493Z,967.06
2016-09-28T04:52:08.004Z,967.07
2016-09-28T04:53:07.483Z,967.06
2016-09-28T04:54:07.943Z,967.07
2016-09-28T04:55:07.463Z,967.04
2016-09-28T04:56:08.017Z,967.05
2016-09-28T04:57:07.582Z,967.03
2016-09-28T04:58:08.126Z,967.02
2016-09-28T04:59:07.602Z,967.03
2016-09-28T05:00:08.023Z,967.01
2016-09-28T05:01:08.197Z,967.02
2016-09-28T05:02:07.699Z,967.01
2016-09-28T05:03:08.261Z,967.06
2016-09-28T05:04:07.848Z,967.03
2016-09-28T05:05:07.342Z,967.07
2016-09-28T05:06:07.865Z,967.09
2016-09-28T05:07:07.367Z,967.07
2016-09-28T05:08:07.940Z,967.16
2016-09-28T05:09:07.474Z,967.12
2016-09-28T05:10:07.959Z,967.12
2016-09-28T05:11:07.527Z,967.20
2016-09-28T05:12:07.417Z,967.12
2016-09-28T05:13:07.873Z,967.13
2016-09-28T05:14:07.396Z,967.15
2016-09-28T05:15:07.954Z,967.13
2016-09-28T05:16:07.523Z,967.13
2016-09-28T05:17:08.259Z,967.11
2016-09-28T05:18:07.845Z,967.14
2016-09-28T05:19:07.288Z,967.06
2016-09-28T05:20:07.912Z,967.08
2016-09-28T05:21:07.476Z,967.07
2016-09-28T05:22:07.951Z,967.09
2016-09-28T05:23:07.463Z,967.07
2016-09-28T05:24:08.018Z,967.12
2016-09-28T05:25:07.459Z,967.11
2016-09-28T05:26:07.974Z,967.14
2016-09-28T05:27:07.441Z,967.14
2016-09-28T05:28:07.995Z,967.18
2016-09-28T05:29:07.494Z,967.18
2016-09-28T05:30:08.052Z,967.19
2016-09-28T05:31:07.623Z,967.15
2016-09-28T05:32:08.169Z,967.21
2016-09-28T05:33:07.733Z,967.19
2016-09-28T05:34:24.102Z,967.21
2016-09-28T05:35:07.591Z,967.24
2016-09-28T05:36:08.146Z,967.21
2016-09-28T05:37:07.714Z,967.19
2016-09-28T05:38:08.324Z,967.18
2016-09-28T05:39:07.909Z,967.17
2016-09-28T05:40:07.461Z,967.14
2016-09-28T05:41:08.107Z,967.12
2016-09-28T05:42:07.702Z,967.12
2016-09-28T05:43:08.217Z,967.04
2016-09-28T05:44:07.781Z,967.04
2016-09-28T05:45:07.267Z,967.02
2016-09-28T05:46:07.906Z,967.02
2016-09-28T05:47:07.469Z,967.04
2016-09-28T05:48:08.021Z,967.06
2016-09-28T05:49:07.589Z,967.11
2016-09-28T05:50:08.097Z,967.08
2016-09-28T05:51:07.743Z,967.16
2016-09-28T05:52:08.329Z,967.15
2016-09-28T05:53:08.139Z,967.20
2016-09-28T05:54:07.689Z,967.23
2016-09-28T05:55:07.356Z,967.24
2016-09-28T05:56:07.967Z,967.26
2016-09-28T05:57:07.466Z,967.23
2016-09-28T05:58:07.994Z,967.25
2016-09-28T05:59:07.491Z,967.26
2016-09-28T06:00:08.064Z,967.27
2016-09-28T06:01:07.721Z,967.27
2016-09-28T06:02:08.304Z,967.27
2016-09-28T06:03:07.863Z,967.27
2016-09-28T06:04:07.435Z,967.29
2016-09-28T06:05:08.028Z,967.31
2016-09-28T06:06:07.650Z,967.29
2016-09-28T06:07:08.200Z,967.31
2016-09-28T06:08:07.828Z,967.34
2016-09-28T06:09:07.255Z,967.35
2016-09-28T06:10:07.722Z,967.38
2016-09-28T06:11:08.263Z,967.41
2016-09-28T06:12:07.845Z,967.43
2016-09-28T06:13:07.302Z,967.43
2016-09-28T06:14:07.804Z,967.48
2016-09-28T06:15:07.286Z,967.45
2016-09-28T06:16:07.838Z,967.46
2016-09-28T06:17:07.441Z,967.48
2016-09-28T06:18:08.104Z,967.49
2016-09-28T06:19:07.573Z,967.55
2016-09-28T06:20:08.161Z,967.53
2016-09-28T06:21:07.625Z,967.52
2016-09-28T06:22:08.189Z,967.51
2016-09-28T06:23:07.726Z,967.55
2016-09-28T06:24:08.316Z,967.56
2016-09-28T06:25:07.921Z,967.58
2016-09-28T06:26:07.462Z,967.62
2016-09-28T06:27:08.070Z,967.63
2016-09-28T06:28:07.662Z,967.62
2016-09-28T06:29:08.357Z,967.64
2016-09-28T06:30:07.833Z,967.64
2016-09-28T06:31:07.301Z,967.63
2016-09-28T06:32:07.978Z,967.62
2016-09-28T06:33:07.605Z,967.71
2016-09-28T06:34:08.188Z,967.71
2016-09-28T06:35:07.770Z,967.69
2016-09-28T06:36:07.355Z,967.68
2016-09-28T06:37:07.996Z,967.72
2016-09-28T06:38:07.652Z,967.75
2016-09-28T06:39:08.164Z,967.78
2016-09-28T06:40:07.742Z,967.80
2016-09-28T06:41:08.317Z,967.76
2016-09-28T06:42:08.027Z,967.77
2016-09-28T06:43:07.525Z,967.73
2016-09-28T06:44:08.061Z,967.72
2016-09-28T06:45:07.563Z,967.72
2016-09-28T06:46:08.215Z,967.62
2016-09-28T06:47:07.812Z,967.69
2016-09-28T06:48:07.347Z,967.66
2016-09-28T06:49:07.840Z,967.66
2016-09-28T06:50:07.364Z,967.68
2016-09-28T06:51:07.972Z,967.67
2016-09-28T06:52:07.587Z,967.73
2016-09-28T06:53:08.339Z,967.72
2016-09-28T06:54:07.960Z,967.77
2016-09-28T06:55:07.529Z,967.77
2016-09-28T06:56:08.039Z,967.77
2016-09-28T06:57:07.523Z,967.80
2016-09-28T06:58:07.979Z,967.82
2016-09-28T06:59:07.496Z,967.81
2016-09-28T07:00:08.052Z,967.83
2016-09-28T07:01:07.544Z,967.81
2016-09-28T07:02:08.150Z,967.86
2016-09-28T07:03:07.748Z,967.87
2016-09-28T07:04:08.413Z,967.84
2016-09-28T07:05:07.977Z,967.87
2016-09-28T07:06:07.622Z,967.89
2016-09-28T07:07:08.186Z,967.90
2016-09-28T07:08:07.808Z,967.94
2016-09-28T07:09:07.345Z,967.92
2016-09-28T07:10:07.944Z,967.97
2016-09-28T07:11:07.480Z,967.96
2016-09-28T07:12:08.072Z,967.99
2016-09-28T07:13:07.591Z,967.96
2016-09-28T07:14:08.136Z,967.93
2016-09-28T07:15:07.705Z,967.89
2016-09-28T07:16:08.260Z,967.86
2016-09-28T07:17:07.942Z,967.93
2016-09-28T07:18:07.457Z,967.91
2016-09-28T07:19:08.042Z,967.88
2016-09-28T07:20:07.561Z,967.90
2016-09-28T07:21:08.152Z,967.87
2016-09-28T07:22:07.689Z,967.87
2016-09-28T07:23:08.173Z,967.93
2016-09-28T07:24:07.657Z,967.93
2016-09-28T07:25:08.237Z,967.97
2016-09-28T07:26:07.876Z,967.97
2016-09-28T07:27:07.378Z,968.02
2016-09-28T07:28:07.977Z,967.99
2016-09-28T07:29:07.446Z,968.01
2016-09-28T07:30:08.078Z,968.00
2016-09-28T07:31:07.545Z,967.98
2016-09-28T07:32:08.154Z,968.04
2016-09-28T07:33:07.710Z,968.05
2016-09-28T07:34:08.277Z,968.02
2016-09-28T07:35:07.837Z,968.02
2016-09-28T07:36:07.447Z,967.99
2016-09-28T07:37:08.013Z,968.00
2016-09-28T07:38:07.576Z,968.01
2016-09-28T07:39:08.124Z,967.98
2016-09-28T07:40:07.648Z,967.94
2016-09-28T07:41:08.187Z,967.97
2016-09-28T07:42:07.718Z,967.92
2016-09-28T07:43:08.313Z,967.91
2016-09-28T07:44:07.858Z,967.84
2016-09-28T07:45:07.413Z,967.84
2016-09-28T07:46:07.994Z,967.80
2016-09-28T07:47:07.619Z,967.83
2016-09-28T07:48:08.265Z,967.84
2016-09-28T07:49:07.758Z,967.85
2016-09-28T07:50:08.319Z,967.86
2016-09-28T07:51:07.745Z,967.82
2016-09-28T07:52:08.347Z,967.86
2016-09-28T07:53:07.646Z,967.88
2016-09-28T07:54:08.181Z,967.91
2016-09-28T07:55:07.644Z,967.89
2016-09-28T07:56:08.189Z,967.95
2016-09-28T07:57:07.747Z,967.94
2016-09-28T07:58:08.335Z,967.93
2016-09-28T07:59:07.954Z,967.95
2016-09-28T08:00:07.488Z,968.02
2016-09-28T08:01:08.028Z,968.00
2016-09-28T08:02:07.485Z,968.03
2016-09-28T08:03:07.994Z,968.03
2016-09-28T08:04:07.600Z,968.07
2016-09-28T08:05:08.166Z,968.07
2016-09-28T08:06:07.797Z,968.09
2016-09-28T08:07:07.347Z,968.10
2016-09-28T08:08:07.897Z,968.12
2016-09-28T08:09:07.416Z,968.14
2016-09-28T08:10:07.887Z,968.17
2016-09-28T08:11:07.340Z,968.17
2016-09-28T08:12:07.891Z,968.20
2016-09-28T08:13:07.389Z,968.21
2016-09-28T08:14:07.917Z,968.22
2016-09-28T08:15:07.390Z,968.21
2016-09-28T08:16:07.932Z,968.23
2016-09-28T08:17:07.599Z,968.25
2016-09-28T08:18:08.184Z,968.31
2016-09-28T08:19:07.760Z,968.29
2016-09-28T08:20:07.310Z,968.33
2016-09-28T08:21:07.861Z,968.34
2016-09-28T08:22:13.994Z,968.33
2016-09-28T08:23:07.780Z,968.37
2016-09-28T08:24:07.342Z,968.36
2016-09-28T08:25:07.792Z,968.35
2016-09-28T08:26:07.681Z,968.38
2016-09-28T08:27:08.239Z,968.38
2016-09-28T08:28:07.802Z,968.35
2016-09-28T08:29:07.329Z,968.40
2016-09-28T08:30:07.830Z,968.40
2016-09-28T08:31:07.290Z,968.42
2016-09-28T08:32:07.777Z,968.40
2016-09-28T08:33:07.752Z,968.37
2016-09-28T08:34:07.313Z,968.35
2016-09-28T08:35:07.881Z,968.43
2016-09-28T08:36:07.539Z,968.40
2016-09-28T08:37:08.107Z,968.36
2016-09-28T08:38:07.729Z,968.38
2016-09-28T08:39:08.290Z,968.33
2016-09-28T08:40:07.912Z,968.35
2016-09-28T08:41:07.376Z,968.31
2016-09-28T08:42:07.890Z,968.28
2016-09-28T08:43:07.408Z,968.24
2016-09-28T08:44:07.909Z,968.22
2016-09-28T08:45:07.413Z,968.24
2016-09-28T08:46:07.998Z,968.22
2016-09-28T08:47:07.616Z,968.20
2016-09-28T08:48:08.236Z,968.22
2016-09-28T08:49:07.709Z,968.19
2016-09-28T08:50:08.275Z,968.20
2016-09-28T08:51:07.778Z,968.21
2016-09-28T08:52:07.338Z,968.19
2016-09-28T08:53:07.939Z,968.19
2016-09-28T08:54:07.509Z,968.18
2016-09-28T08:55:08.068Z,968.16
2016-09-28T08:56:07.548Z,968.16
2016-09-28T08:57:08.026Z,968.19
2016-09-28T08:58:07.767Z,968.17
2016-09-28T08:59:07.336Z,968.21
2016-09-28T09:00:07.910Z,968.22
2016-09-28T09:01:07.452Z,968.24
2016-09-28T09:02:07.971Z,968.29
2016-09-28T09:03:07.629Z,968.32
2016-09-28T09:04:08.227Z,968.34
2016-09-28T09:05:07.797Z,968.36
2016-09-28T09:06:07.338Z,968.39
2016-09-28T09:07:07.917Z,968.38
2016-09-28T09:08:07.546Z,968.43
2016-09-28T09:09:08.117Z,968.38
2016-09-28T09:10:07.695Z,968.39
2016-09-28T09:11:08.270Z,968.38
2016-09-28T09:12:07.767Z,968.35
2016-09-28T09:13:07.313Z,968.32
2016-09-28T09:14:07.853Z,968.32
2016-09-28T09:15:07.431Z,968.27
2016-09-28T09:16:07.982Z,968.21
2016-09-28T09:17:07.674Z,968.15
2016-09-28T09:18:08.276Z,968.15
2016-09-28T09:19:07.914Z,968.14
2016-09-28T09:20:07.461Z,968.03
2016-09-28T09:21:08.021Z,968.04
2016-09-28T09:22:07.598Z,968.04
2016-09-28T09:23:08.182Z,968.02
2016-09-28T09:24:07.658Z,967.88
2016-09-28T09:25:08.185Z,967.93
2016-09-28T09:26:07.717Z,967.94
2016-09-28T09:27:08.296Z,967.93
2016-09-28T09:28:07.814Z,967.91
2016-09-28T09:29:07.334Z,967.94
2016-09-28T09:30:07.923Z,967.95
2016-09-28T09:31:07.422Z,967.89
2016-09-28T09:32:07.960Z,967.95
2016-09-28T09:33:07.430Z,967.94
2016-09-28T09:34:08.034Z,967.93
2016-09-28T09:35:07.619Z,967.94
2016-09-28T09:36:08.170Z,967.95
2016-09-28T09:37:07.355Z,967.96
2016-09-28T09:38:07.916Z,967.93
2016-09-28T09:39:07.406Z,967.93
2016-09-28T09:40:07.996Z,967.97
2016-09-28T09:41:07.450Z,967.93
2016-09-28T09:42:08.022Z,967.91
2016-09-28T09:43:07.465Z,967.94
2016-09-28T09:44:07.784Z,967.90
2016-09-28T09:45:07.315Z,967.97
2016-09-28T09:46:07.836Z,967.95
2016-09-28T09:47:07.434Z,967.96
2016-09-28T09:48:07.971Z,967.96
2016-09-28T09:49:07.498Z,967.95
2016-09-28T09:50:08.070Z,967.92
2016-09-28T09:51:07.623Z,967.95
2016-09-28T09:52:08.194Z,967.93
2016-09-28T09:53:07.720Z,967.97
2016-09-28T09:54:08.196Z,967.93
2016-09-28T09:55:07.689Z,967.97
2016-09-28T09:56:08.215Z,967.95
2016-09-28T09:57:07.776Z,967.98
2016-09-28T09:58:07.312Z,967.90
2016-09-28T09:59:07.923Z,967.90
2016-09-28T10:00:07.390Z,967.88
2016-09-28T10:01:07.968Z,967.86
2016-09-28T10:02:07.607Z,967.90
2016-09-28T10:03:08.143Z,967.88
2016-09-28T10:04:07.726Z,967.88
2016-09-28T10:05:08.303Z,967.89
2016-09-28T10:06:07.886Z,967.88
2016-09-28T10:07:07.418Z,967.86
2016-09-28T10:08:08.018Z,967.83
2016-09-28T10:09:07.625Z,967.79
2016-09-28T10:10:08.174Z,967.75
2016-09-28T10:11:07.718Z,967.78
2016-09-28T10:12:08.215Z,967.75
2016-09-28T10:13:07.740Z,967.77
2016-09-28T10:14:08.287Z,967.79
2016-09-28T10:15:07.848Z,967.81
2016-09-28T10:16:07.435Z,967.82
2016-09-28T10:17:08.234Z,967.81
2016-09-28T10:18:07.747Z,967.76
2016-09-28T10:19:08.378Z,967.77
2016-09-28T10:20:07.915Z,967.80
2016-09-28T10:21:07.432Z,967.76
2016-09-28T10:22:08.008Z,967.74
2016-09-28T10:23:07.590Z,967.73
2016-09-28T10:24:08.408Z,967.68
2016-09-28T10:25:08.027Z,967.69
2016-09-28T10:26:07.552Z,967.69
2016-09-28T10:27:08.129Z,967.68
2016-09-28T10:28:07.703Z,967.68
2016-09-28T10:29:08.336Z,967.73
2016-09-28T10:30:07.894Z,967.69
2016-09-28T10:31:07.378Z,967.74
2016-09-28T10:32:08.002Z,967.73
2016-09-28T10:33:07.531Z,967.70
2016-09-28T10:34:08.156Z,967.65
2016-09-28T10:35:07.757Z,967.65
2016-09-28T10:36:08.320Z,967.58
2016-09-28T10:37:07.877Z,967.67
2016-09-28T10:38:07.363Z,967.70
2016-09-28T10:39:07.957Z,967.71
2016-09-28T10:40:07.619Z,967.69
2016-09-28T10:41:08.119Z,967.69
2016-09-28T10:42:07.629Z,967.70
2016-09-28T10:43:08.314Z,967.69
2016-09-28T10:44:07.835Z,967.71
2016-09-28T10:45:07.379Z,967.68
2016-09-28T10:46:08.257Z,967.67
2016-09-28T10:47:07.887Z,967.75
2016-09-28T10:48:07.470Z,967.70
2016-09-28T10:49:07.754Z,967.75
2016-09-28T10:50:08.341Z,967.76
2016-09-28T10:51:07.907Z,967.73
2016-09-28T10:52:07.495Z,967.70
2016-09-28T10:53:08.088Z,967.69
2016-09-28T10:54:07.647Z,967.67
2016-09-28T10:55:08.200Z,967.73
2016-09-28T10:56:07.697Z,967.73
2016-09-28T10:57:08.284Z,967.69
2016-09-28T10:58:07.782Z,967.60
2016-09-28T10:59:07.302Z,967.64
2016-09-28T11:00:07.842Z,967.60
2016-09-28T11:01:07.317Z,967.61
2016-09-28T11:02:07.866Z,967.57
2016-09-28T11:03:07.438Z,967.62
2016-09-28T11:04:07.970Z,967.58
2016-09-28T11:05:07.566Z,967.58
2016-09-28T11:06:08.086Z,967.57
2016-09-28T11:07:07.671Z,967.50
2016-09-28T11:08:08.213Z,967.49
2016-09-28T11:09:07.812Z,967.43
2016-09-28T11:10:07.271Z,967.44
2016-09-28T11:11:07.848Z,967.38
2016-09-28T11:12:07.418Z,967.38
2016-09-28T11:13:08.032Z,967.37
2016-09-28T11:14:07.619Z,967.36
2016-09-28T11:15:08.150Z,967.33
2016-09-28T11:16:07.733Z,967.35
2016-09-28T11:17:08.464Z,967.34
2016-09-28T11:18:07.937Z,967.29
2016-09-28T11:19:07.445Z,967.22
2016-09-28T11:20:07.991Z,967.24
2016-09-28T11:21:07.566Z,967.16
2016-09-28T11:22:08.135Z,967.10
2016-09-28T11:23:07.692Z,967.13
2016-09-28T11:24:08.250Z,967.06
2016-09-28T11:25:07.765Z,967.13
2016-09-28T11:26:07.355Z,967.08
2016-09-28T11:27:07.891Z,967.09
2016-09-28T11:28:07.425Z,967.09
2016-09-28T11:29:07.943Z,967.05
2016-09-28T11:30:07.456Z,967.00
2016-09-28T11:31:08.057Z,966.97
2016-09-28T11:32:07.495Z,966.96
2016-09-28T11:33:08.216Z,966.94
2016-09-28T11:34:07.805Z,966.93
2016-09-28T11:35:07.417Z,966.91
2016-09-28T11:36:07.936Z,966.94
2016-09-28T11:37:07.444Z,966.95
2016-09-28T11:38:07.981Z,966.88
2016-09-28T11:39:07.548Z,966.95
2016-09-28T11:40:08.158Z,966.92
2016-09-28T11:41:07.673Z,966.94
2016-09-28T11:42:08.236Z,966.96
2016-09-28T11:43:07.695Z,966.94
2016-09-28T11:44:08.252Z,966.92
2016-09-28T11:45:07.834Z,966.94
2016-09-28T11:46:07.288Z,966.93
2016-09-28T11:47:07.813Z,966.89
2016-09-28T11:48:07.277Z,966.92
2016-09-28T11:49:07.943Z,966.90
2016-09-28T11:50:07.534Z,966.92
2016-09-28T11:51:08.165Z,966.91
2016-09-28T11:52:07.724Z,966.89
2016-09-28T11:53:08.257Z,966.90
2016-09-28T11:54:07.773Z,966.88
2016-09-28T11:55:07.344Z,966.88
2016-09-28T11:56:07.878Z,966.79
2016-09-28T11:57:07.358Z,966.83
2016-09-28T11:58:07.939Z,966.81
2016-09-28T11:59:07.417Z,966.80
2016-09-28T12:00:07.983Z,966.81
2016-09-28T12:01:07.524Z,966.80
2016-09-28T12:02:08.086Z,966.77
2016-09-28T12:03:07.552Z,966.76
2016-09-28T12:04:08.137Z,966.82
2016-09-28T12:05:07.707Z,966.80
2016-09-28T12:06:08.295Z,966.81
2016-09-28T12:07:07.949Z,966.82
2016-09-28T12:08:07.471Z,966.82
2016-09-28T12:09:08.131Z,966.73
2016-09-28T12:10:07.745Z,966.70
2016-09-28T12:11:08.337Z,966.72
2016-09-28T12:12:07.932Z,966.72
2016-09-28T12:13:07.506Z,966.69
2016-09-28T12:14:08.020Z,966.73
2016-09-28T12:15:07.595Z,966.74
2016-09-28T12:16:08.150Z,966.78
2016-09-28T12:17:07.859Z,966.80
2016-09-28T12:18:07.393Z,966.78
2016-09-28T12:19:07.985Z,966.75
2016-09-28T12:20:07.629Z,966.71
2016-09-28T12:21:08.457Z,966.64
2016-09-28T12:22:08.029Z,966.62
2016-09-28T12:23:07.638Z,966.66
2016-09-28T12:24:08.263Z,966.64
2016-09-28T12:25:07.884Z,966.67
2016-09-28T12:26:07.459Z,966.70
2016-09-28T12:27:08.069Z,966.73
2016-09-28T12:28:07.567Z,966.70
2016-09-28T12:29:08.227Z,966.67